Time;durP1;ratioP1;P1;durP2;ratioP2;P2;SDS_P1;SDS_P2;PMS_P1;PMS_P2;Temp;Humidity;BMP_temperature;BMP_pressure;BME280_temperature;BME280_humidity;BME280_pressure;Samples;Min_cycle;Max_cycle;Signal;HPM_P1;HPM_P2
2023/04/02 00:02:32;;;;;;;;;;;9.50;95.20;;;8.85;78.02;99817.28;5047824;28;19929;-75
2023/04/02 00:05:49;;;;;;;;;;;9.50;95.40;;;8.84;78.19;99840.41;5050333;28;20015;-77
2023/04/02 00:08:22;;;;;;;;;;;9.40;95.40;;;8.78;77.13;99825.28;5021272;28;19929;-80
2023/04/02 00:10:51;;;;;;;;;;;9.40;95.00;;;8.81;77.84;99826.72;5044535;28;20369;-77
2023/04/02 00:13:23;;;;;;;;;;;9.40;95.30;;;8.73;77.26;99843.72;5047574;28;19971;-77
2023/04/02 00:15:51;;;;;;;;;;;9.30;95.00;;;8.69;77.72;99842.56;5039993;28;19940;-76
2023/04/02 00:18:21;;;;;;;;;;;9.30;95.40;;;8.66;77.89;99846.44;5048592;28;19928;-79
2023/04/02 00:20:52;;;;;;;;;;;9.30;95.50;;;8.67;77.86;99857.88;5046696;28;19935;-77
2023/04/02 00:23:19;;;;;;;;;;;9.30;95.40;;;8.68;77.97;99862.16;5031917;28;19971;-80
2023/04/02 00:25:46;;;;;;;;;;;9.30;95.40;;;8.68;78.15;99862.97;5049847;28;19967;-77
2023/04/02 00:28:15;;;;;;;;;;;9.30;95.70;;;8.69;77.58;99880.59;5049461;28;19925;-76
2023/04/02 00:30:47;;;;;;;;;;;9.30;95.40;;;8.63;77.12;99885.91;5047349;28;20638;-76
2023/04/02 00:33:17;;;;;;;;;;;9.20;94.90;;;8.55;77.29;99889.66;5050255;28;19929;-79
2023/04/02 00:35:47;;;;;;;;;;;9.20;95.00;;;8.51;77.49;99888.44;5050155;28;20019;-77
2023/04/02 00:38:19;;;;;;;;;;;9.10;95.10;;;8.49;77.83;99906.41;5031694;28;19932;-79
2023/04/02 00:40:47;;;;;;;;;;;9.10;95.30;;;8.55;78.11;99902.94;5045625;28;20019;-78
2023/04/02 00:43:15;;;;;;;;;;;9.20;95.60;;;8.59;77.76;99911.28;5046767;28;20023;-78
2023/04/02 00:45:49;;;;;;;;;;;9.20;95.40;;;8.58;77.30;99921.09;5032095;28;19929;-77
2023/04/02 00:48:29;;;;;;;;;;;9.20;95.10;;;8.57;77.21;99914.16;5038954;28;19936;-77
2023/04/02 00:50:58;;;;;;;;;;;9.20;95.00;;;8.53;76.88;99928.91;5031602;28;19935;-76
2023/04/02 00:53:28;;;;;;;;;;;9.20;94.70;;;8.46;76.83;99942.22;5049732;28;20452;-77
2023/04/02 00:55:57;;;;;;;;;;;9.10;94.60;;;8.46;76.89;99936.91;5036716;28;20023;-78
2023/04/02 00:58:27;;;;;;;;;;;9.10;94.60;;;8.45;76.70;99943.25;5048444;28;19971;-79
2023/04/02 01:00:55;;;;;;;;;;;9.10;94.60;;;8.44;76.37;99946.09;5047011;28;19929;-80
2023/04/02 01:03:37;;;;;;;;;;;9.10;94.40;;;8.37;76.04;99953.28;5047412;28;20416;-78
2023/04/02 01:06:10;;;;;;;;;;;9.00;94.10;;;8.30;75.53;99960.44;5049264;28;19929;-77
2023/04/02 01:08:49;;;;;;;;;;;9.00;93.80;;;8.29;76.05;99959.59;5031489;28;19924;-80
2023/04/02 01:11:31;;;;;;;;;;;9.00;94.20;;;8.25;75.63;99956.56;5048000;28;20522;-78
2023/04/02 01:14:02;;;;;;;;;;;8.90;93.80;;;8.26;75.84;99965.34;5049244;28;19928;-76
2023/04/02 01:16:41;;;;;;;;;;;8.90;94.10;;;8.27;75.50;99970.44;5047288;28;20046;-77
2023/04/02 01:19:32;;;;;;;;;;;8.90;93.80;;;8.29;75.74;99970.22;5028605;28;20019;-78
2023/04/02 01:22:03;;;;;;;;;;;8.90;94.00;;;8.31;75.97;99964.72;5031960;28;19932;-77
2023/04/02 01:24:32;;;;;;;;;;;8.90;94.20;;;8.35;75.76;99981.88;5047082;28;20024;-77
2023/04/02 01:27:01;;;;;;;;;;;8.90;94.20;;;8.37;75.90;99985.19;5045171;28;19933;-77
2023/04/02 01:29:32;;;;;;;;;;;9.10;94.40;;;8.36;75.01;99986.19;5048232;28;20019;-77
2023/04/02 01:32:04;;;;;;;;;;;9.00;93.40;;;8.31;75.02;99994.75;5045206;28;20142;-79
2023/04/02 01:34:32;;;;;;;;;;;8.90;93.60;;;8.24;74.75;100008.03;5038935;28;19929;-78
2023/04/02 01:37:16;;;;;;;;;;;8.80;93.30;;;8.18;74.91;100000.91;5029690;28;19933;-77
2023/04/02 01:39:59;;;;;;;;;;;8.80;93.60;;;8.18;74.96;100016.03;5025116;28;19955;-80
2023/04/02 01:42:32;;;;;;;;;;;8.80;93.50;;;8.15;74.68;100011.97;5026553;28;20429;-77
2023/04/02 01:45:02;;;;;;;;;;;8.80;93.40;;;8.09;74.10;100015.44;5040333;28;19936;-76
2023/04/02 01:47:29;;;;;;;;;;;8.70;93.20;;;8.04;74.43;100017.88;5029341;28;20377;-77
2023/04/02 01:50:00;;;;;;;;;;;8.70;93.00;;;8.07;74.42;100027.28;5044209;28;19925;-77
2023/04/02 01:52:36;;;;;;;;;;;8.70;93.20;;;8.06;75.13;100023.81;5024766;28;19932;-80
2023/04/02 01:55:04;;;;;;;;;;;8.70;93.60;;;8.07;74.61;100036.06;5044355;28;20364;-76
2023/04/02 01:57:31;;;;;;;;;;;8.70;93.30;;;8.12;74.81;100036.28;5030674;28;19929;-80
2023/04/02 02:00:07;;;;;;;;;;;8.70;93.60;;;8.13;74.30;100043.22;5031197;28;19982;-78
2023/04/02 02:02:41;;;;;;;;;;;8.80;93.10;;;8.18;74.52;100045.25;5047335;28;19925;-76
2023/04/02 02:05:13;;;;;;;;;;;8.80;93.30;;;8.21;74.15;100050.16;5047629;28;19929;-76
2023/04/02 02:07:41;;;;;;;;;;;8.80;93.00;;;8.16;73.85;100050.78;5046697;28;19925;-76
2023/04/02 02:10:13;;;;;;;;;;;8.80;92.90;;;8.13;74.17;100053.84;5027613;28;19958;-76
2023/04/02 02:12:41;;;;;;;;;;;8.80;93.10;;;8.14;74.15;100054.66;5032925;28;20027;-79
2023/04/02 02:15:16;;;;;;;;;;;8.80;93.20;;;8.12;73.93;100072.66;5034746;28;19929;-80
2023/04/02 02:17:43;;;;;;;;;;;8.70;92.90;;;8.05;73.94;100082.44;5051240;28;19928;-76
2023/04/02 02:20:11;;;;;;;;;;;8.80;92.80;;;7.99;73.99;100078.75;5089421;22;20391;-79
2023/04/02 02:22:40;;;;;;;;;;;8.60;93.00;;;7.95;74.00;100080.19;5073042;28;20372;-78
2023/04/02 02:25:12;;;;;;;;;;;8.50;92.90;;;7.86;74.23;100089.38;5092743;28;20031;-79
2023/04/02 02:27:48;;;;;;;;;;;8.50;93.10;;;7.82;74.52;100093.47;5071926;28;20422;-78
2023/04/02 02:30:20;;;;;;;;;;;8.40;93.30;;;7.81;74.26;100094.47;5072484;28;19927;-80
2023/04/02 02:32:53;;;;;;;;;;;8.40;93.00;;;7.83;74.59;100119.00;5077092;28;20052;-78
2023/04/02 02:35:22;;;;;;;;;;;8.40;93.50;;;7.78;74.11;100108.97;5090877;28;19928;-79
2023/04/02 02:37:56;;;;;;;;;;;8.40;93.00;;;7.77;74.00;100106.53;5068276;28;19924;-80
2023/04/02 02:40:29;;;;;;;;;;;8.40;92.80;;;7.73;74.31;100111.41;5073859;28;19928;-78
2023/04/02 02:42:59;;;;;;;;;;;8.40;93.00;;;7.75;74.01;100119.97;5077287;28;19934;-80
2023/04/02 02:45:32;;;;;;;;;;;8.40;92.80;;;7.72;74.00;100125.72;5081495;28;20391;-78
2023/04/02 02:48:01;;;;;;;;;;;8.30;93.00;;;7.72;73.93;100141.63;5076188;28;19935;-78
2023/04/02 02:50:30;;;;;;;;;;;8.30;93.00;;;7.70;73.63;100128.53;5083363;28;19935;-78
2023/04/02 02:52:59;;;;;;;;;;;8.30;92.60;;;7.70;74.08;100144.47;5071156;28;20035;-79
2023/04/02 02:55:32;;;;;;;;;;;8.30;93.10;;;7.70;73.92;100157.75;5054169;28;19964;-81
2023/04/02 02:58:11;;;;;;;;;;;8.30;93.00;;;7.65;73.48;100146.09;5067871;28;20429;-80
2023/04/02 03:00:48;;;;;;;;;;;8.30;92.80;;;7.66;73.70;100159.19;5071172;28;19928;-78
2023/04/02 03:03:20;;;;;;;;;;;8.30;92.90;;;7.67;73.57;100162.66;5072812;28;19935;-77
2023/04/02 03:05:53;;;;;;;;;;;8.30;92.80;;;7.60;73.33;100175.88;5063563;28;20372;-77
2023/04/02 03:08:25;;;;;;;;;;;8.20;92.40;;;7.47;73.10;100175.84;5071810;28;19927;-81
2023/04/02 03:10:57;;;;;;;;;;;8.20;92.40;;;7.49;74.10;100173.81;5079295;28;19935;-78
2023/04/02 03:13:31;;;;;;;;;;;8.20;93.00;;;7.49;73.37;100179.94;5091830;28;19939;-77
2023/04/02 03:16:06;;;;;;;;;;;8.10;92.40;;;7.41;73.31;100177.44;5072042;28;20395;-78
2023/04/02 03:18:40;;;;;;;;;;;8.00;92.40;;;7.39;73.43;100190.09;5071209;28;19928;-80
2023/04/02 03:21:17;;;;;;;;;;;8.00;92.80;;;7.41;73.79;100192.53;5069816;28;20380;-80
2023/04/02 03:23:47;;;;;;;;;;;8.00;93.00;;;7.42;73.66;100195.03;5071830;28;19928;-78
2023/04/02 03:26:18;;;;;;;;;;;8.00;92.70;;;7.39;73.32;100211.31;5072627;28;19928;-79
2023/04/02 03:28:50;;;;;;;;;;;8.00;92.80;;;7.40;73.72;100209.47;5072444;28;19928;-77
2023/04/02 03:31:23;;;;;;;;;;;8.00;93.00;;;7.39;73.84;100221.13;5099189;28;20387;-78
2023/04/02 03:33:55;;;;;;;;;;;8.00;93.00;;;7.42;73.91;100220.72;5087393;28;20011;-77
2023/04/02 03:36:27;;;;;;;;;;;8.00;93.10;;;7.44;73.93;100231.94;5072785;28;19928;-79
2023/04/02 03:39:00;;;;;;;;;;;8.00;93.00;;;7.39;73.76;100239.69;5071674;28;20399;-78
2023/04/02 03:41:32;;;;;;;;;;;8.00;92.90;;;7.38;73.59;100240.72;5069344;28;19931;-79
2023/04/02 03:44:06;;;;;;;;;;;8.00;92.70;;;7.32;73.66;100252.91;5084811;28;20266;-76
2023/04/02 03:46:39;;;;;;;;;;;8.00;92.90;;;7.28;73.73;100245.56;5059900;28;20010;-78
2023/04/02 03:49:09;;;;;;;;;;;7.90;92.80;;;7.26;74.03;100251.03;5071685;28;19939;-77
2023/04/02 03:51:40;;;;;;;;;;;7.90;93.20;;;7.22;74.16;100255.94;5074957;28;19928;-76
2023/04/02 03:54:12;;;;;;;;;;;7.90;93.20;;;7.19;73.80;100266.91;5085699;28;19950;-78
2023/04/02 03:56:39;;;;;;;;;;;7.80;92.70;;;7.24;74.06;100276.94;5073083;28;19967;-78
2023/04/02 03:59:15;;;;;;;;;;;7.90;93.20;;;7.29;73.54;100279.81;5070739;28;19936;-78
2023/04/02 04:01:48;;;;;;;;;;;7.80;92.80;;;7.27;73.58;100278.38;5071687;28;19924;-77
2023/04/02 04:04:18;;;;;;;;;;;7.90;92.70;;;7.29;73.51;100290.44;5071545;28;19932;-77
2023/04/02 04:06:49;;;;;;;;;;;7.90;92.60;;;7.31;72.95;100293.69;5066793;28;19927;-77
2023/04/02 04:09:20;;;;;;;;;;;7.90;92.60;;;7.33;72.51;100293.53;5061314;28;19962;-78
2023/04/02 04:11:50;;;;;;;;;;;7.90;92.10;;;7.27;72.50;100312.84;5095895;28;19970;-79
2023/04/02 04:14:20;;;;;;;;;;;7.90;92.00;;;7.22;71.59;100302.81;5072870;28;20338;-76
2023/04/02 04:16:53;;;;;;;;;;;7.80;91.20;;;7.15;71.66;100304.63;5071185;28;19928;-77
2023/04/02 04:19:28;;;;;;;;;;;7.80;91.50;;;7.14;72.21;100327.66;5067787;28;19924;-78
2023/04/02 04:22:09;;;;;;;;;;;7.80;91.80;;;7.07;71.69;100332.09;5070752;28;19978;-80
2023/04/02 04:24:38;;;;;;;;;;;7.70;91.40;;;7.03;71.97;100332.66;5075408;28;19964;-81
2023/04/02 04:27:08;;;;;;;;;;;7.70;91.60;;;6.99;72.32;100332.25;5078511;28;20022;-79
2023/04/02 04:29:45;;;;;;;;;;;7.60;91.60;;;7.03;72.53;100338.81;5076075;28;19932;-81
2023/04/02 04:32:26;;;;;;;;;;;7.70;91.90;;;6.96;71.62;100346.69;5071475;28;20481;-81
2023/04/02 04:34:59;;;;;;;;;;;7.60;91.00;;;6.90;71.52;100365.19;5067570;28;19928;-77
2023/04/02 04:37:34;;;;;;;;;;;7.50;91.10;;;6.74;71.84;100360.16;5065438;28;20368;-77
2023/04/02 04:40:10;;;;;;;;;;;7.40;91.10;;;6.72;72.41;100357.66;5073542;28;19957;-79
2023/04/02 04:42:41;;;;;;;;;;;7.60;91.80;;;6.72;72.38;100365.63;5073444;28;19924;-77
2023/04/02 04:45:13;;;;;;;;;;;7.40;92.00;;;6.77;72.88;100365.06;5069025;28;20307;-78
2023/04/02 04:47:49;;;;;;;;;;;7.40;92.40;;;6.85;72.92;100378.19;5071572;28;20261;-79
2023/04/02 04:50:22;;;;;;;;;;;7.40;92.40;;;6.84;72.89;100395.13;5079030;28;19924;-79
2023/04/02 04:52:50;;;;;;;;;;;7.40;92.10;;;6.74;72.18;100390.13;5066397;28;19929;-78
2023/04/02 04:55:27;;;;;;;;;;;7.40;91.60;;;6.64;72.40;100401.03;5077664;28;20014;-81
2023/04/02 04:57:58;;;;;;;;;;;7.30;91.90;;;6.64;72.44;100401.03;5060119;28;20393;-81
2023/04/02 05:00:32;;;;;;;;;;;7.30;92.00;;;6.64;72.87;100411.63;5065612;28;20691;-77
2023/04/02 05:03:09;;;;;;;;;;;7.30;92.20;;;6.60;72.93;100413.00;5068430;28;19940;-80
2023/04/02 05:05:39;;;;;;;;;;;7.20;92.40;;;6.60;73.02;100426.25;5073997;28;19942;-79
2023/04/02 05:08:13;;;;;;;;;;;7.20;92.40;;;6.61;73.11;100435.84;5071144;28;19925;-78
2023/04/02 05:10:45;;;;;;;;;;;7.20;92.50;;;6.67;72.78;100440.38;5084559;28;19932;-83
2023/04/02 05:13:17;;;;;;;;;;;7.30;92.20;;;6.66;72.54;100443.22;5060248;28;19928;-81
2023/04/02 05:15:50;;;;;;;;;;;7.40;92.20;;;6.68;72.80;100442.03;5077859;28;20457;-79
2023/04/02 05:18:26;;;;;;;;;;;7.30;92.40;;;6.75;72.87;100454.53;5061614;28;19932;-82
2023/04/02 05:20:57;;;;;;;;;;;7.30;92.40;;;6.69;71.42;100454.28;5070292;28;19934;-77
2023/04/02 05:23:29;;;;;;;;;;;7.30;91.10;;;6.63;71.50;100468.25;5064243;28;19928;-77
2023/04/02 05:26:04;;;;;;;;;;;7.30;91.30;;;6.65;72.11;100476.03;5068032;28;19950;-76
2023/04/02 05:28:35;;;;;;;;;;;7.30;91.90;;;6.64;71.89;100477.88;5066160;28;20398;-76
2023/04/02 05:31:05;;;;;;;;;;;7.30;91.40;;;6.63;71.57;100484.16;5087966;28;19994;-76
2023/04/02 05:33:37;;;;;;;;;;;7.30;91.30;;;6.69;71.92;100480.78;5074626;28;19973;-76
2023/04/02 05:36:10;;;;;;;;;;;7.30;91.70;;;6.64;70.81;100492.94;5073703;28;19971;-77
2023/04/02 05:38:45;;;;;;;;;;;7.20;90.60;;;6.64;71.10;100499.06;5065721;28;19954;-78
2023/04/02 05:41:21;;;;;;;;;;;7.20;90.90;;;6.64;70.33;100504.38;5070721;28;19928;-76
2023/04/02 05:43:51;;;;;;;;;;;7.20;90.50;;;6.56;70.59;100509.75;5064825;28;19932;-77
2023/04/02 05:46:22;;;;;;;;;;;7.20;90.80;;;6.51;70.18;100508.66;5072151;28;19936;-77
2023/04/02 05:48:54;;;;;;;;;;;7.10;90.40;;;6.45;70.28;100520.81;5087259;28;19924;-75
2023/04/02 05:51:28;;;;;;;;;;;7.10;90.40;;;6.40;70.45;100528.50;5070563;28;19954;-75
2023/04/02 05:53:58;;;;;;;;;;;7.00;90.60;;;6.36;69.90;100524.56;5065922;28;20042;-78
2023/04/02 05:56:30;;;;;;;;;;;7.00;90.10;;;6.33;70.88;100538.16;5069854;28;19924;-77
2023/04/02 05:59:06;;;;;;;;;;;7.00;90.80;;;6.28;70.20;100540.53;5070742;28;19928;-75
2023/04/02 06:01:40;;;;;;;;;;;6.90;90.40;;;6.27;70.51;100552.13;5070927;28;19935;-76
2023/04/02 06:04:20;;;;;;;;;;;6.90;90.80;;;6.26;70.59;100546.03;5079637;28;20393;-77
2023/04/02 06:06:52;;;;;;;;;;;6.80;90.70;;;6.20;70.63;100549.41;5097625;28;19928;-76
2023/04/02 06:09:27;;;;;;;;;;;6.90;90.80;;;6.26;71.19;100563.75;5089240;28;20014;-78
2023/04/02 06:12:02;;;;;;;;;;;6.80;91.20;;;6.20;70.41;100565.28;5070451;28;19924;-77
2023/04/02 06:14:30;;;;;;;;;;;6.90;90.60;;;6.18;70.70;100581.34;5066993;28;19923;-77
2023/04/02 06:16:57;;;;;;;;;;;6.80;90.70;;;6.26;70.89;100590.22;5076012;28;20026;-78
2023/04/02 06:19:30;;;;;;;;;;;6.90;90.90;;;6.17;69.66;100595.59;5067253;28;20453;-79
2023/04/02 06:22:07;;;;;;;;;;;6.80;89.80;;;6.16;70.08;100601.88;5068089;28;19932;-79
2023/04/02 06:24:38;;;;;;;;;;;6.80;90.10;;;6.16;69.98;100616.97;5068537;28;20288;-76
2023/04/02 06:27:05;;;;;;;;;;;6.80;90.10;;;6.09;69.68;100616.00;5085272;28;20562;-77
2023/04/02 06:29:38;;;;;;;;;;;6.70;89.70;;;6.06;69.65;100606.63;5073199;28;19932;-77
2023/04/02 06:32:07;;;;;;;;;;;6.70;89.90;;;6.08;70.28;100620.47;5064166;28;19924;-77
2023/04/02 06:34:41;;;;;;;;;;;6.70;90.20;;;6.05;69.76;100651.78;5076878;28;19928;-77
2023/04/02 06:37:18;;;;;;;;;;;6.70;89.80;;;6.02;69.91;100631.78;5069730;28;19928;-77
2023/04/02 06:39:45;;;;;;;;;;;6.70;90.20;;;6.06;70.67;100638.38;5069924;28;20006;-78
2023/04/02 06:42:19;;;;;;;;;;;6.70;90.60;;;6.05;70.82;100642.03;5068288;28;19939;-76
2023/04/02 06:45:16;;;;;;;;;;;6.70;90.80;;;6.05;70.11;100641.19;5054901;28;19927;-78
2023/04/02 06:48:03;;;;;;;;;;;6.70;90.20;;;6.04;69.94;100658.06;5087279;28;19935;-78
2023/04/02 06:50:47;;;;;;;;;;;6.70;90.10;;;5.98;69.94;100654.31;5077922;28;20014;-77
2023/04/02 06:53:21;;;;;;;;;;;6.70;90.10;;;6.03;70.78;100665.19;5069726;28;19924;-77
2023/04/02 06:55:51;;;;;;;;;;;6.70;90.70;;;6.04;70.71;100672.13;5067855;28;19970;-77
2023/04/02 06:58:23;;;;;;;;;;;6.70;90.50;;;6.10;70.80;100678.53;5073262;28;19931;-77
2023/04/02 07:00:51;;;;;;;;;;;6.70;90.80;;;6.03;69.83;100681.09;5076041;28;19932;-79
2023/04/02 07:03:32;;;;;;;;;;;6.80;89.80;;;6.04;70.16;100684.56;5073308;28;19931;-77
2023/04/02 07:06:14;;;;;;;;;;;6.70;90.40;;;6.07;70.30;100690.31;5073090;28;19932;-77
2023/04/02 07:08:41;;;;;;;;;;;6.70;90.40;;;6.05;70.27;100691.50;5091141;28;20013;-78
2023/04/02 07:11:10;;;;;;;;;;;6.70;90.00;;;6.06;70.35;100695.81;5070350;28;19932;-77
2023/04/02 07:13:37;;;;;;;;;;;6.70;90.40;;;6.09;70.67;100704.19;5068712;28;19985;-84
2023/04/02 07:16:05;;;;;;;;;;;6.70;90.60;;;6.10;70.38;100707.66;5089509;28;19932;-78
2023/04/02 07:18:33;;;;;;;;;;;6.70;90.60;;;6.08;70.56;100713.16;5090455;28;19935;-81
2023/04/02 07:21:04;;;;;;;;;;;6.70;90.60;;;6.11;70.58;100725.22;5070073;28;20407;-76
2023/04/02 07:23:33;;;;;;;;;;;6.70;90.60;;;6.11;69.72;100731.34;5090778;28;19951;-77
2023/04/02 07:26:01;;;;;;;;;;;6.70;90.00;;;6.03;69.33;100736.69;5085792;28;20010;-79
2023/04/02 07:28:29;;;;;;;;;;;6.70;89.70;;;6.01;69.14;100736.03;5088719;28;19928;-78
2023/04/02 07:30:56;;;;;;;;;;;6.70;89.50;;;6.00;69.57;100733.56;5092017;28;20749;-76
2023/04/02 07:33:24;;;;;;;;;;;6.70;89.80;;;6.04;69.72;100767.44;5091967;28;20015;-77
2023/04/02 07:35:54;;;;;;;;;;;6.70;89.70;;;6.03;69.48;100759.69;5073773;28;19928;-77
2023/04/02 07:38:21;;;;;;;;;;;6.70;89.40;;;6.07;69.02;100758.34;5072298;28;19924;-78
2023/04/02 07:40:49;;;;;;;;;;;6.70;89.10;;;6.04;68.67;100753.38;5090166;28;19958;-78
2023/04/02 07:43:16;;;;;;;;;;;6.70;88.90;;;6.06;68.99;100762.81;5110724;28;20295;-78
2023/04/02 07:45:43;;;;;;;;;;;6.80;88.80;;;6.07;68.79;100771.59;5096795;28;19928;-81
2023/04/02 07:48:13;;;;;;;;;;;6.70;89.00;;;6.05;68.59;100771.75;5109497;28;19924;-79
2023/04/02 07:50:40;;;;;;;;;;;6.70;88.90;;;6.01;68.15;100786.34;5112248;28;19923;-77
2023/04/02 07:53:08;;;;;;;;;;;6.70;88.30;;;6.04;69.17;100787.81;5091226;28;19928;-79
2023/04/02 07:55:35;;;;;;;;;;;6.70;89.30;;;5.96;67.92;100793.97;5086949;28;20414;-78
2023/04/02 07:58:04;;;;;;;;;;;6.70;88.10;;;5.94;68.47;100790.66;5087724;28;20357;-77
2023/04/02 08:00:31;;;;;;;;;;;6.60;88.50;;;5.97;68.48;100794.81;5073157;28;19924;-78
2023/04/02 08:02:58;;;;;;;;;;;6.70;88.70;;;5.96;68.60;100812.50;5091837;28;20027;-76
2023/04/02 08:05:25;;;;;;;;;;;6.70;88.70;;;5.96;68.85;100807.22;5071363;28;19985;-78
2023/04/02 08:07:54;;;;;;;;;;;6.70;88.80;;;6.01;69.07;100810.16;5086287;28;20395;-75
2023/04/02 08:10:21;;;;;;;;;;;6.70;88.90;;;6.05;68.62;100810.63;5101231;28;19928;-78
2023/04/02 08:12:48;;;;;;;;;;;6.70;88.60;;;6.07;68.79;100809.47;5098701;28;19960;-76
2023/04/02 08:15:17;;;;;;;;;;;6.70;88.80;;;6.10;68.52;100824.16;5080275;28;19928;-77
2023/04/02 08:17:44;;;;;;;;;;;6.70;88.60;;;6.07;68.04;100835.13;5090894;28;19932;-77
2023/04/02 08:20:16;;;;;;;;;;;6.70;88.30;;;6.05;68.12;100829.16;5100201;22;20030;-80
2023/04/02 08:22:44;;;;;;;;;;;6.70;88.10;;;6.02;67.55;100837.47;5090140;28;19932;-79
2023/04/02 08:25:11;;;;;;;;;;;6.70;87.80;;;5.93;67.53;100847.25;5090071;28;20486;-80
2023/04/02 08:27:38;;;;;;;;;;;6.60;87.90;;;5.95;67.83;100850.53;5090960;28;20308;-78
2023/04/02 08:30:07;;;;;;;;;;;6.60;87.70;;;5.91;67.46;100858.03;5084760;28;20023;-78
2023/04/02 08:32:36;;;;;;;;;;;6.60;87.30;;;5.92;67.86;100858.84;5068382;28;19935;-77
2023/04/02 08:35:03;;;;;;;;;;;6.60;87.90;;;5.97;67.86;100863.63;5084371;28;20031;-78
2023/04/02 08:37:30;;;;;;;;;;;6.60;88.10;;;5.91;67.56;100878.34;5058202;28;20285;-77
2023/04/02 08:39:57;;;;;;;;;;;6.60;87.60;;;5.93;68.18;100879.84;5069233;28;19936;-81
2023/04/02 08:42:31;;;;;;;;;;;6.80;88.30;;;5.99;67.72;100880.97;5066388;28;19990;-79
2023/04/02 08:45:08;;;;;;;;;;;6.70;87.70;;;5.98;67.08;100881.97;5068961;28;19974;-78
2023/04/02 08:47:39;;;;;;;;;;;6.60;87.60;;;5.93;67.14;100895.72;5069648;28;19935;-85
2023/04/02 08:50:14;;;;;;;;;;;6.60;87.30;;;5.91;66.83;100899.53;5068278;28;20291;-80
2023/04/02 08:52:41;;;;;;;;;;;6.60;87.20;;;5.93;67.75;100906.31;5066169;28;19982;-77
2023/04/02 08:55:19;;;;;;;;;;;6.60;87.90;;;5.99;67.84;100901.34;5065957;28;19966;-77
2023/04/02 08:57:51;;;;;;;;;;;6.70;88.00;;;5.99;67.33;100910.09;5065951;28;20291;-77
2023/04/02 09:00:27;;;;;;;;;;;6.70;87.50;;;6.02;67.38;100920.38;5069746;28;19924;-82
2023/04/02 09:02:58;;;;;;;;;;;6.70;87.70;;;6.06;67.08;100915.56;5068391;28;19936;-82
2023/04/02 09:05:28;;;;;;;;;;;6.70;87.70;;;5.96;66.91;100934.28;5050197;28;19929;-83
2023/04/02 09:07:56;;;;;;;;;;;6.70;86.90;;;5.92;66.44;100922.38;5068702;28;19932;-79
2023/04/02 09:10:27;;;;;;;;;;;6.70;86.90;;;5.93;66.93;100943.38;5061982;28;20007;-80
2023/04/02 09:12:54;;;;;;;;;;;6.70;87.10;;;5.97;66.25;100925.34;5069127;28;19932;-78
2023/04/02 09:15:28;;;;;;;;;;;6.70;86.70;;;5.98;66.43;100942.88;5067301;28;19981;-78
2023/04/02 09:18:00;;;;;;;;;;;6.70;86.70;;;5.99;66.22;100931.28;5067382;28;19935;-80
2023/04/02 09:20:28;;;;;;;;;;;6.70;86.70;;;5.99;66.54;100955.09;5068561;28;20617;-81
2023/04/02 09:22:55;;;;;;;;;;;6.70;86.90;;;6.00;66.43;100951.47;5067438;28;19924;-79
2023/04/02 09:25:26;;;;;;;;;;;6.70;86.70;;;6.04;66.93;100952.78;5069987;28;20019;-83
2023/04/02 09:27:55;;;;;;;;;;;6.70;87.30;;;6.05;66.24;100954.44;5069728;28;19928;-79
2023/04/02 09:30:30;;;;;;;;;;;6.70;86.50;;;6.01;65.81;100966.38;5069887;28;19925;-80
2023/04/02 09:33:01;;;;;;;;;;;6.70;85.70;;;6.02;66.68;100975.97;5070169;28;19924;-79
2023/04/02 09:35:29;;;;;;;;;;;6.70;86.80;;;6.02;65.06;100973.31;5069927;28;20003;-79
2023/04/02 09:38:18;;;;;;;;;;;6.70;85.60;;;5.97;65.53;100983.59;5070003;28;19924;-79
2023/04/02 09:40:48;;;;;;;;;;;6.70;85.70;;;5.92;65.81;100981.44;5070081;28;19924;-78
2023/04/02 09:43:17;;;;;;;;;;;6.70;86.10;;;5.98;66.00;100995.81;5070181;28;20043;-80
2023/04/02 09:45:54;;;;;;;;;;;6.70;86.40;;;6.04;66.18;100983.72;5069973;28;19935;-83
2023/04/02 09:48:25;;;;;;;;;;;6.70;86.50;;;6.05;65.34;100996.81;5069895;28;20334;-79
2023/04/02 09:51:04;;;;;;;;;;;6.70;85.80;;;6.00;64.90;100990.34;5069964;28;19956;-78
2023/04/02 09:53:34;;;;;;;;;;;6.70;84.80;;;6.07;66.07;100999.28;5069957;28;20319;-79
2023/04/02 09:56:13;;;;;;;;;;;6.70;86.20;;;6.14;66.38;101001.06;5069794;28;20026;-81
2023/04/02 09:58:40;;;;;;;;;;;6.80;86.30;;;6.12;65.71;101007.56;5069794;28;20026;-80
2023/04/02 10:01:23;;;;;;;;;;;6.90;85.70;;;6.18;65.57;101007.69;5069693;28;20361;-79
2023/04/02 10:03:51;;;;;;;;;;;6.90;85.60;;;6.19;65.01;101022.56;5069894;28;20032;-78
2023/04/02 10:06:18;;;;;;;;;;;6.90;85.00;;;6.21;64.80;101016.31;5069742;28;20376;-78
2023/04/02 10:08:45;;;;;;;;;;;6.90;85.10;;;6.26;65.56;101028.03;5069588;28;20013;-79
2023/04/02 10:11:16;;;;;;;;;;;7.00;85.80;;;6.31;65.51;101044.25;5069969;28;20438;-79
2023/04/02 10:13:51;;;;;;;;;;;7.00;85.70;;;6.30;65.00;101045.25;5070159;28;19936;-81
2023/04/02 10:16:23;;;;;;;;;;;7.00;84.90;;;6.31;64.80;101040.78;5069734;28;19967;-80
2023/04/02 10:18:54;;;;;;;;;;;7.00;84.80;;;6.34;64.70;101051.84;5069604;28;19929;-82
2023/04/02 10:21:25;;;;;;;;;;;7.00;84.90;;;6.38;65.17;101050.50;5069772;28;19928;-80
2023/04/02 10:23:53;;;;;;;;;;;7.10;85.30;;;6.40;64.72;101059.13;5069399;28;19938;-80
2023/04/02 10:26:43;;;;;;;;;;;7.10;84.70;;;6.37;63.95;101062.13;5069521;28;19968;-78
2023/04/02 10:29:23;;;;;;;;;;;7.10;84.10;;;6.32;64.10;101060.97;5069439;28;20040;-78
2023/04/02 10:31:58;;;;;;;;;;;7.00;84.10;;;6.37;64.40;101079.84;5069701;28;19943;-79
2023/04/02 10:34:34;;;;;;;;;;;7.00;84.40;;;6.34;64.08;101085.47;5073439;28;19948;-79
2023/04/02 10:37:07;;;;;;;;;;;7.00;84.00;;;6.35;64.61;101089.78;5073457;28;20026;-79
2023/04/02 10:39:38;;;;;;;;;;;7.00;84.60;;;6.34;63.51;101082.81;5073157;28;20082;-80
2023/04/02 10:42:10;;;;;;;;;;;7.00;83.70;;;6.30;63.86;101086.81;5073264;28;20367;-79
2023/04/02 10:44:45;;;;;;;;;;;7.00;83.90;;;6.31;64.11;101091.94;5073282;28;20019;-79
2023/04/02 10:47:22;;;;;;;;;;;7.20;84.30;;;6.29;63.57;101104.50;5073166;28;19932;-78
2023/04/02 10:49:56;;;;;;;;;;;7.00;83.80;;;6.29;64.37;101098.38;5073250;28;19928;-78
2023/04/02 10:52:28;;;;;;;;;;;7.00;84.50;;;6.36;64.52;101108.16;5073285;28;19928;-79
2023/04/02 10:54:58;;;;;;;;;;;7.10;84.90;;;6.42;64.40;101101.34;5073037;28;20367;-78
2023/04/02 10:57:34;;;;;;;;;;;7.10;84.50;;;6.44;63.58;101113.44;5072936;28;19928;-78
2023/04/02 11:00:08;;;;;;;;;;;7.10;83.70;;;6.42;62.88;101111.94;5072983;28;20353;-79
2023/04/02 11:02:41;;;;;;;;;;;7.10;82.90;;;6.45;63.31;101117.75;5072994;28;19929;-80
2023/04/02 11:05:17;;;;;;;;;;;7.20;83.50;;;6.48;63.25;101116.56;5072729;28;19935;-79
2023/04/02 11:07:53;;;;;;;;;;;7.20;83.40;;;6.51;63.33;101128.66;5072716;28;20380;-79
2023/04/02 11:10:21;;;;;;;;;;;7.20;83.20;;;6.52;63.48;101135.63;5072713;28;20354;-82
2023/04/02 11:12:52;;;;;;;;;;;7.20;83.30;;;6.47;63.20;101144.06;5054669;28;19931;-82
2023/04/02 11:15:20;;;;;;;;;;;7.20;82.90;;;6.43;62.71;101142.75;5072580;28;19980;-81
2023/04/02 11:17:47;;;;;;;;;;;7.20;82.50;;;6.46;63.22;101158.31;5072595;28;19935;-78
2023/04/02 11:20:57;;;;;;;;;;;7.20;83.20;;;6.47;62.66;101157.31;5072162;28;20031;-79
2023/04/02 11:23:36;;;;;;;;;;;7.20;82.60;;;6.49;62.88;101159.78;5057071;28;19944;-81
2023/04/02 11:26:29;;;;;;;;;;;7.20;82.50;;;6.56;62.57;101158.97;5072484;28;20036;-80
2023/04/02 11:29:20;;;;;;;;;;;7.30;82.90;;;6.55;62.13;101162.63;5072240;28;20028;-78
2023/04/02 11:31:49;;;;;;;;;;;7.30;81.80;;;6.60;62.42;101175.34;5072585;28;19935;-78
2023/04/02 11:34:55;;;;;;;;;;;7.30;82.40;;;6.59;62.19;101168.41;5072310;28;20399;-82
2023/04/02 11:37:34;;;;;;;;;;;7.30;82.00;;;6.64;62.35;101168.72;5072221;28;19928;-79
2023/04/02 11:40:03;;;;;;;;;;;7.40;82.20;;;6.70;62.31;101160.94;5072234;28;19972;-77
2023/04/02 11:42:32;;;;;;;;;;;7.40;82.20;;;6.72;61.55;101174.00;5072212;28;20431;-78
2023/04/02 11:45:02;;;;;;;;;;;7.50;81.20;;;6.76;62.33;101187.75;5070962;28;19925;-79
2023/04/02 11:47:29;;;;;;;;;;;7.50;81.80;;;6.76;61.57;101188.56;5071870;28;19963;-79
2023/04/02 11:50:01;;;;;;;;;;;7.50;81.40;;;6.77;61.55;101186.75;5072017;28;19924;-78
2023/04/02 11:52:52;;;;;;;;;;;7.50;81.60;;;6.79;61.55;101205.97;5072078;28;19925;-79